sensor_id;sensor_type;location;lat;lon;timestamp;P1;durP1;ratioP1;P2;durP2;ratioP2
83119;SDS011;73001;51.784;4.660;2023-11-21T00:01:15;11.22;;;10.54;;
83119;SDS011;73001;51.784;4.660;2023-11-21T00:03:40;10.45;;;9.97;;
83119;SDS011;73001;51.784;4.660;2023-11-21T00:06:06;10.95;;;10.49;;
83119;SDS011;73001;51.784;4.660;2023-11-21T00:08:34;10.21;;;9.84;;
83119;SDS011;73001;51.784;4.660;2023-11-21T00:11:00;10.24;;;9.95;;
83119;SDS011;73001;51.784;4.660;2023-11-21T00:13:26;10.66;;;10.26;;
83119;SDS011;73001;51.784;4.660;2023-11-21T00:15:52;11.03;;;10.59;;
83119;SDS011;73001;51.784;4.660;2023-11-21T00:18:17;10.34;;;9.95;;
83119;SDS011;73001;51.784;4.660;2023-11-21T00:20:43;10.83;;;10.41;;
83119;SDS011;73001;51.784;4.660;2023-11-21T00:23:08;10.92;;;10.52;;
83119;SDS011;73001;51.784;4.660;2023-11-21T00:25:34;11.50;;;10.94;;
83119;SDS011;73001;51.784;4.660;2023-11-21T00:28:00;12.07;;;11.42;;
83119;SDS011;73001;51.784;4.660;2023-11-21T00:30:26;12.27;;;11.53;;
83119;SDS011;73001;51.784;4.660;2023-11-21T00:32:54;11.49;;;10.80;;
83119;SDS011;73001;51.784;4.660;2023-11-21T00:35:19;11.59;;;10.93;;
83119;SDS011;73001;51.784;4.660;2023-11-21T00:37:45;11.06;;;10.57;;
83119;SDS011;73001;51.784;4.660;2023-11-21T00:40:10;10.64;;;10.19;;
83119;SDS011;73001;51.784;4.660;2023-11-21T00:42:37;10.93;;;10.57;;
83119;SDS011;73001;51.784;4.660;2023-11-21T00:45:03;13.34;;;12.55;;
83119;SDS011;73001;51.784;4.660;2023-11-21T00:47:29;12.06;;;11.43;;
83119;SDS011;73001;51.784;4.660;2023-11-21T00:49:54;12.84;;;12.22;;
83119;SDS011;73001;51.784;4.660;2023-11-21T00:52:20;12.33;;;11.65;;
83119;SDS011;73001;51.784;4.660;2023-11-21T00:54:45;11.56;;;11.02;;
83119;SDS011;73001;51.784;4.660;2023-11-21T00:57:11;12.09;;;11.49;;
83119;SDS011;73001;51.784;4.660;2023-11-21T00:59:37;12.78;;;12.01;;
83119;SDS011;73001;51.784;4.660;2023-11-21T01:02:02;12.28;;;11.52;;
83119;SDS011;73001;51.784;4.660;2023-11-21T01:04:30;11.87;;;11.15;;
83119;SDS011;73001;51.784;4.660;2023-11-21T01:06:56;11.51;;;10.93;;
83119;SDS011;73001;51.784;4.660;2023-11-21T01:09:22;11.40;;;10.95;;
83119;SDS011;73001;51.784;4.660;2023-11-21T01:11:47;12.26;;;11.60;;
83119;SDS011;73001;51.784;4.660;2023-11-21T01:14:13;12.63;;;11.93;;
83119;SDS011;73001;51.784;4.660;2023-11-21T01:16:38;12.61;;;12.07;;
83119;SDS011;73001;51.784;4.660;2023-11-21T01:19:04;12.46;;;11.81;;
83119;SDS011;73001;51.784;4.660;2023-11-21T01:21:29;12.61;;;11.91;;
83119;SDS011;73001;51.784;4.660;2023-11-21T01:23:55;12.60;;;11.91;;
83119;SDS011;73001;51.784;4.660;2023-11-21T01:26:21;11.42;;;11.00;;
83119;SDS011;73001;51.784;4.660;2023-11-21T01:28:46;12.11;;;11.48;;
83119;SDS011;73001;51.784;4.660;2023-11-21T01:31:14;12.22;;;11.74;;
83119;SDS011;73001;51.784;4.660;2023-11-21T01:33:40;13.22;;;12.49;;
83119;SDS011;73001;51.784;4.660;2023-11-21T01:36:06;12.72;;;11.98;;
83119;SDS011;73001;51.784;4.660;2023-11-21T01:38:31;13.11;;;12.15;;
83119;SDS011;73001;51.784;4.660;2023-11-21T01:40:57;13.01;;;12.26;;
83119;SDS011;73001;51.784;4.660;2023-11-21T01:43:22;12.27;;;11.59;;
83119;SDS011;73001;51.784;4.660;2023-11-21T01:45:48;13.18;;;12.61;;
83119;SDS011;73001;51.784;4.660;2023-11-21T01:48:14;13.34;;;12.85;;
83119;SDS011;73001;51.784;4.660;2023-11-21T01:50:41;12.75;;;12.25;;
83119;SDS011;73001;51.784;4.660;2023-11-21T01:53:08;12.11;;;11.60;;
83119;SDS011;73001;51.784;4.660;2023-11-21T01:55:34;11.28;;;10.88;;
83119;SDS011;73001;51.784;4.660;2023-11-21T01:58:00;10.90;;;10.51;;
83119;SDS011;73001;51.784;4.660;2023-11-21T02:00:26;10.94;;;10.48;;
83119;SDS011;73001;51.784;4.660;2023-11-21T02:02:54;11.46;;;10.84;;
83119;SDS011;73001;51.784;4.660;2023-11-21T02:05:19;11.34;;;10.80;;
83119;SDS011;73001;51.784;4.660;2023-11-21T02:07:46;11.05;;;10.63;;
83119;SDS011;73001;51.784;4.660;2023-11-21T02:10:17;11.04;;;10.55;;
83119;SDS011;73001;51.784;4.660;2023-11-21T02:12:47;10.78;;;10.47;;
83119;SDS011;73001;51.784;4.660;2023-11-21T02:15:15;11.57;;;11.30;;
83119;SDS011;73001;51.784;4.660;2023-11-21T02:17:48;11.36;;;10.96;;
83119;SDS011;73001;51.784;4.660;2023-11-21T02:20:19;11.43;;;11.05;;
83119;SDS011;73001;51.784;4.660;2023-11-21T02:22:52;10.23;;;9.91;;
83119;SDS011;73001;51.784;4.660;2023-11-21T02:25:27;10.52;;;10.17;;
83119;SDS011;73001;51.784;4.660;2023-11-21T02:27:54;9.89;;;9.56;;
83119;SDS011;73001;51.784;4.660;2023-11-21T02:30:22;9.83;;;9.55;;
83119;SDS011;73001;51.784;4.660;2023-11-21T02:32:50;9.99;;;9.65;;
83119;SDS011;73001;51.784;4.660;2023-11-21T02:35:18;9.65;;;9.34;;
83119;SDS011;73001;51.784;4.660;2023-11-21T02:37:46;9.70;;;9.48;;
83119;SDS011;73001;51.784;4.660;2023-11-21T02:40:12;9.71;;;9.45;;
83119;SDS011;73001;51.784;4.660;2023-11-21T02:42:38;10.16;;;9.79;;
83119;SDS011;73001;51.784;4.660;2023-11-21T02:45:06;10.25;;;9.84;;
83119;SDS011;73001;51.784;4.660;2023-11-21T02:47:32;9.66;;;9.35;;
83119;SDS011;73001;51.784;4.660;2023-11-21T02:49:58;9.57;;;9.21;;
83119;SDS011;73001;51.784;4.660;2023-11-21T02:52:24;9.22;;;9.01;;
83119;SDS011;73001;51.784;4.660;2023-11-21T02:54:50;8.86;;;8.68;;
83119;SDS011;73001;51.784;4.660;2023-11-21T02:57:15;10.00;;;9.76;;
83119;SDS011;73001;51.784;4.660;2023-11-21T02:59:40;10.93;;;10.69;;
83119;SDS011;73001;51.784;4.660;2023-11-21T03:02:06;9.86;;;9.66;;
83119;SDS011;73001;51.784;4.660;2023-11-21T03:04:34;9.03;;;8.78;;
83119;SDS011;73001;51.784;4.660;2023-11-21T03:07:00;9.33;;;9.09;;
83119;SDS011;73001;51.784;4.660;2023-11-21T03:09:25;8.15;;;7.96;;
83119;SDS011;73001;51.784;4.660;2023-11-21T03:11:52;8.50;;;8.28;;
83119;SDS011;73001;51.784;4.660;2023-11-21T03:14:18;8.67;;;8.48;;
83119;SDS011;73001;51.784;4.660;2023-11-21T03:16:43;8.48;;;8.28;;
83119;SDS011;73001;51.784;4.660;2023-11-21T03:19:10;8.52;;;8.36;;
83119;SDS011;73001;51.784;4.660;2023-11-21T03:21:36;8.68;;;8.58;;
83119;SDS011;73001;51.784;4.660;2023-11-21T03:24:02;9.50;;;9.36;;
83119;SDS011;73001;51.784;4.660;2023-11-21T03:26:28;10.29;;;10.08;;
83119;SDS011;73001;51.784;4.660;2023-11-21T03:28:54;9.40;;;9.18;;
83119;SDS011;73001;51.784;4.660;2023-11-21T03:31:20;8.93;;;8.61;;
83119;SDS011;73001;51.784;4.660;2023-11-21T03:33:46;8.09;;;7.90;;
83119;SDS011;73001;51.784;4.660;2023-11-21T03:36:12;8.26;;;8.17;;
83119;SDS011;73001;51.784;4.660;2023-11-21T03:38:39;8.37;;;8.25;;
83119;SDS011;73001;51.784;4.660;2023-11-21T03:41:05;8.39;;;8.25;;
83119;SDS011;73001;51.784;4.660;2023-11-21T03:43:31;8.78;;;8.52;;
83119;SDS011;73001;51.784;4.660;2023-11-21T03:45:56;8.35;;;8.20;;
83119;SDS011;73001;51.784;4.660;2023-11-21T03:48:22;8.27;;;8.12;;
83119;SDS011;73001;51.784;4.660;2023-11-21T03:50:48;8.07;;;7.95;;
83119;SDS011;73001;51.784;4.660;2023-11-21T03:53:13;8.07;;;7.91;;
83119;SDS011;73001;51.784;4.660;2023-11-21T03:55:39;7.62;;;7.54;;
83119;SDS011;73001;51.784;4.660;2023-11-21T03:58:04;7.33;;;7.23;;
83119;SDS011;73001;51.784;4.660;2023-11-21T04:00:30;7.96;;;7.87;;
83119;SDS011;73001;51.784;4.660;2023-11-21T04:02:56;8.23;;;8.12;;
83119;SDS011;73001;51.784;4.660;2023-11-21T04:05:21;8.15;;;8.02;;
83119;SDS011;73001;51.784;4.660;2023-11-21T04:07:51;8.60;;;8.47;;
83119;SDS011;73001;51.784;4.660;2023-11-21T04:10:16;7.84;;;7.75;;
83119;SDS011;73001;51.784;4.660;2023-11-21T04:12:42;8.59;;;8.52;;
83119;SDS011;73001;51.784;4.660;2023-11-21T04:15:08;8.65;;;8.49;;
83119;SDS011;73001;51.784;4.660;2023-11-21T04:17:34;8.40;;;8.27;;
83119;SDS011;73001;51.784;4.660;2023-11-21T04:20:00;8.30;;;8.10;;
83119;SDS011;73001;51.784;4.660;2023-11-21T04:22:25;7.88;;;7.74;;
83119;SDS011;73001;51.784;4.660;2023-11-21T04:24:51;7.41;;;7.29;;
83119;SDS011;73001;51.784;4.660;2023-11-21T04:27:16;7.88;;;7.77;;
83119;SDS011;73001;51.784;4.660;2023-11-21T04:29:43;7.85;;;7.69;;
83119;SDS011;73001;51.784;4.660;2023-11-21T04:32:09;7.61;;;7.48;;
83119;SDS011;73001;51.784;4.660;2023-11-21T04:34:34;7.92;;;7.80;;
83119;SDS011;73001;51.784;4.660;2023-11-21T04:37:00;7.88;;;7.75;;
83119;SDS011;73001;51.784;4.660;2023-11-21T04:39:26;8.01;;;7.86;;
83119;SDS011;73001;51.784;4.660;2023-11-21T04:41:51;7.80;;;7.63;;
83119;SDS011;73001;51.784;4.660;2023-11-21T04:44:17;8.08;;;7.91;;
83119;SDS011;73001;51.784;4.660;2023-11-21T04:46:42;7.55;;;7.41;;
83119;SDS011;73001;51.784;4.660;2023-11-21T04:49:08;7.60;;;7.48;;
83119;SDS011;73001;51.784;4.660;2023-11-21T04:51:36;7.83;;;7.62;;
83119;SDS011;73001;51.784;4.660;2023-11-21T04:54:01;7.52;;;7.32;;
83119;SDS011;73001;51.784;4.660;2023-11-21T04:56:27;8.02;;;7.74;;
83119;SDS011;73001;51.784;4.660;2023-11-21T04:58:53;7.41;;;7.19;;
83119;SDS011;73001;51.784;4.660;2023-11-21T05:01:19;7.38;;;7.28;;
83119;SDS011;73001;51.784;4.660;2023-11-21T05:03:45;7.55;;;7.44;;
83119;SDS011;73001;51.784;4.660;2023-11-21T05:06:11;7.76;;;7.57;;
83119;SDS011;73001;51.784;4.660;2023-11-21T05:08:37;7.26;;;7.09;;
83119;SDS011;73001;51.784;4.660;2023-11-21T05:11:03;7.39;;;7.28;;
83119;SDS011;73001;51.784;4.660;2023-11-21T05:13:28;7.68;;;7.56;;
83119;SDS011;73001;51.784;4.660;2023-11-21T05:15:54;8.83;;;8.67;;
83119;SDS011;73001;51.784;4.660;2023-11-21T05:18:22;8.65;;;8.42;;
83119;SDS011;73001;51.784;4.660;2023-11-21T05:20:47;8.51;;;8.37;;
83119;SDS011;73001;51.784;4.660;2023-11-21T05:23:13;9.38;;;9.17;;
83119;SDS011;73001;51.784;4.660;2023-11-21T05:25:38;8.67;;;8.55;;
83119;SDS011;73001;51.784;4.660;2023-11-21T05:28:04;8.92;;;8.77;;
83119;SDS011;73001;51.784;4.660;2023-11-21T05:30:29;9.75;;;9.56;;
83119;SDS011;73001;51.784;4.660;2023-11-21T05:32:54;9.34;;;9.17;;
83119;SDS011;73001;51.784;4.660;2023-11-21T05:35:20;9.48;;;9.30;;
83119;SDS011;73001;51.784;4.660;2023-11-21T05:37:46;9.52;;;9.29;;
83119;SDS011;73001;51.784;4.660;2023-11-21T05:40:12;9.58;;;9.33;;
83119;SDS011;73001;51.784;4.660;2023-11-21T05:42:38;9.62;;;9.45;;
83119;SDS011;73001;51.784;4.660;2023-11-21T05:45:05;9.49;;;9.26;;
83119;SDS011;73001;51.784;4.660;2023-11-21T05:47:43;9.62;;;9.37;;
83119;SDS011;73001;51.784;4.660;2023-11-21T05:50:11;9.12;;;8.97;;
83119;SDS011;73001;51.784;4.660;2023-11-21T05:52:40;9.61;;;9.32;;
83119;SDS011;73001;51.784;4.660;2023-11-21T05:55:07;9.03;;;8.87;;
83119;SDS011;73001;51.784;4.660;2023-11-21T05:57:33;8.51;;;8.32;;
83119;SDS011;73001;51.784;4.660;2023-11-21T06:00:06;9.16;;;8.94;;
83119;SDS011;73001;51.784;4.660;2023-11-21T06:02:38;10.03;;;9.86;;
83119;SDS011;73001;51.784;4.660;2023-11-21T06:05:05;9.83;;;9.61;;
83119;SDS011;73001;51.784;4.660;2023-11-21T06:07:33;9.64;;;9.31;;
83119;SDS011;73001;51.784;4.660;2023-11-21T06:10:03;9.80;;;9.47;;
83119;SDS011;73001;51.784;4.660;2023-11-21T06:12:35;9.09;;;8.81;;
83119;SDS011;73001;51.784;4.660;2023-11-21T06:15:04;9.06;;;8.73;;
83119;SDS011;73001;51.784;4.660;2023-11-21T06:17:33;8.80;;;8.55;;
83119;SDS011;73001;51.784;4.660;2023-11-21T06:20:03;8.35;;;8.22;;
83119;SDS011;73001;51.784;4.660;2023-11-21T06:22:37;7.74;;;7.67;;
83119;SDS011;73001;51.784;4.660;2023-11-21T06:25:04;7.73;;;7.63;;
83119;SDS011;73001;51.784;4.660;2023-11-21T06:27:34;8.66;;;8.43;;
83119;SDS011;73001;51.784;4.660;2023-11-21T06:30:02;9.31;;;9.08;;
83119;SDS011;73001;51.784;4.660;2023-11-21T06:32:29;9.88;;;9.71;;
83119;SDS011;73001;51.784;4.660;2023-11-21T06:34:57;9.63;;;9.49;;
83119;SDS011;73001;51.784;4.660;2023-11-21T06:37:26;9.63;;;9.49;;
83119;SDS011;73001;51.784;4.660;2023-11-21T06:39:53;9.10;;;8.95;;
83119;SDS011;73001;51.784;4.660;2023-11-21T06:42:19;8.21;;;8.06;;
83119;SDS011;73001;51.784;4.660;2023-11-21T06:44:45;8.36;;;8.20;;
83119;SDS011;73001;51.784;4.660;2023-11-21T06:47:11;8.63;;;8.51;;
83119;SDS011;73001;51.784;4.660;2023-11-21T06:49:37;9.15;;;8.90;;
83119;SDS011;73001;51.784;4.660;2023-11-21T06:52:03;9.37;;;9.20;;
83119;SDS011;73001;51.784;4.660;2023-11-21T06:54:30;9.32;;;9.23;;
83119;SDS011;73001;51.784;4.660;2023-11-21T06:56:57;9.31;;;9.25;;
83119;SDS011;73001;51.784;4.660;2023-11-21T06:59:23;9.56;;;9.42;;
83119;SDS011;73001;51.784;4.660;2023-11-21T07:01:49;9.32;;;9.22;;
83119;SDS011;73001;51.784;4.660;2023-11-21T07:04:15;9.09;;;8.93;;
83119;SDS011;73001;51.784;4.660;2023-11-21T07:06:41;8.93;;;8.78;;
83119;SDS011;73001;51.784;4.660;2023-11-21T07:09:06;8.92;;;8.82;;
83119;SDS011;73001;51.784;4.660;2023-11-21T07:11:33;8.49;;;8.39;;
83119;SDS011;73001;51.784;4.660;2023-11-21T07:14:00;8.17;;;8.06;;
83119;SDS011;73001;51.784;4.660;2023-11-21T07:16:27;8.38;;;8.24;;
83119;SDS011;73001;51.784;4.660;2023-11-21T07:18:55;7.77;;;7.61;;
83119;SDS011;73001;51.784;4.660;2023-11-21T07:21:20;7.58;;;7.49;;
83119;SDS011;73001;51.784;4.660;2023-11-21T07:23:46;7.99;;;7.83;;
83119;SDS011;73001;51.784;4.660;2023-11-21T07:26:11;7.90;;;7.73;;
83119;SDS011;73001;51.784;4.660;2023-11-21T07:28:37;8.11;;;7.86;;
83119;SDS011;73001;51.784;4.660;2023-11-21T07:31:03;8.09;;;7.83;;
83119;SDS011;73001;51.784;4.660;2023-11-21T07:33:28;7.55;;;7.38;;
83119;SDS011;73001;51.784;4.660;2023-11-21T07:35:54;7.94;;;7.74;;
83119;SDS011;73001;51.784;4.660;2023-11-21T07:38:19;7.82;;;7.64;;
83119;SDS011;73001;51.784;4.660;2023-11-21T07:40:44;7.88;;;7.70;;
83119;SDS011;73001;51.784;4.660;2023-11-21T07:43:10;7.54;;;7.43;;
83119;SDS011;73001;51.784;4.660;2023-11-21T07:45:35;7.46;;;7.34;;
83119;SDS011;73001;51.784;4.660;2023-11-21T07:48:01;7.83;;;7.64;;
83119;SDS011;73001;51.784;4.660;2023-11-21T07:50:28;7.89;;;7.78;;
83119;SDS011;73001;51.784;4.660;2023-11-21T07:52:54;8.79;;;8.69;;
83119;SDS011;73001;51.784;4.660;2023-11-21T07:55:20;8.72;;;8.63;;
83119;SDS011;73001;51.784;4.660;2023-11-21T07:57:45;8.42;;;8.29;;
83119;SDS011;73001;51.784;4.660;2023-11-21T08:00:11;8.29;;;8.13;;
83119;SDS011;73001;51.784;4.660;2023-11-21T08:02:38;7.51;;;7.45;;
83119;SDS011;73001;51.784;4.660;2023-11-21T08:05:04;7.83;;;7.72;;
83119;SDS011;73001;51.784;4.660;2023-11-21T08:07:32;7.37;;;7.23;;
83119;SDS011;73001;51.784;4.660;2023-11-21T08:09:58;6.79;;;6.70;;
83119;SDS011;73001;51.784;4.660;2023-11-21T08:12:24;6.36;;;6.32;;
83119;SDS011;73001;51.784;4.660;2023-11-21T08:14:49;5.92;;;5.89;;
83119;SDS011;73001;51.784;4.660;2023-11-21T08:17:15;5.95;;;5.92;;
83119;SDS011;73001;51.784;4.660;2023-11-21T08:19:40;5.57;;;5.56;;
83119;SDS011;73001;51.784;4.660;2023-11-21T08:22:06;5.79;;;5.75;;
83119;SDS011;73001;51.784;4.660;2023-11-21T08:24:33;5.38;;;5.33;;
83119;SDS011;73001;51.784;4.660;2023-11-21T08:26:58;6.15;;;6.10;;
83119;SDS011;73001;51.784;4.660;2023-11-21T08:29:24;5.18;;;5.15;;
83119;SDS011;73001;51.784;4.660;2023-11-21T08:31:49;4.76;;;4.73;;
83119;SDS011;73001;51.784;4.660;2023-11-21T08:34:15;4.72;;;4.68;;
83119;SDS011;73001;51.784;4.660;2023-11-21T08:36:43;4.72;;;4.66;;
83119;SDS011;73001;51.784;4.660;2023-11-21T08:39:09;4.54;;;4.51;;
83119;SDS011;73001;51.784;4.660;2023-11-21T08:41:35;4.39;;;4.38;;
83119;SDS011;73001;51.784;4.660;2023-11-21T08:44:01;4.81;;;4.80;;
83119;SDS011;73001;51.784;4.660;2023-11-21T08:46:32;4.69;;;4.67;;
83119;SDS011;73001;51.784;4.660;2023-11-21T08:48:58;4.67;;;4.62;;
83119;SDS011;73001;51.784;4.660;2023-11-21T08:51:25;5.00;;;4.98;;
83119;SDS011;73001;51.784;4.660;2023-11-21T08:53:51;4.89;;;4.88;;
83119;SDS011;73001;51.784;4.660;2023-11-21T08:56:17;5.07;;;5.04;;
83119;SDS011;73001;51.784;4.660;2023-11-21T08:58:43;4.84;;;4.82;;
83119;SDS011;73001;51.784;4.660;2023-11-21T09:01:09;4.86;;;4.83;;
83119;SDS011;73001;51.784;4.660;2023-11-21T09:03:34;4.95;;;4.88;;
83119;SDS011;73001;51.784;4.660;2023-11-21T09:06:00;4.79;;;4.75;;
83119;SDS011;73001;51.784;4.660;2023-11-21T09:08:26;5.39;;;5.34;;
83119;SDS011;73001;51.784;4.660;2023-11-21T09:10:53;4.97;;;4.96;;
83119;SDS011;73001;51.784;4.660;2023-11-21T09:13:19;5.17;;;5.17;;
83119;SDS011;73001;51.784;4.660;2023-11-21T09:15:44;5.09;;;5.07;;
83119;SDS011;73001;51.784;4.660;2023-11-21T09:18:14;4.92;;;4.90;;
83119;SDS011;73001;51.784;4.660;2023-11-21T09:20:40;5.30;;;5.29;;
83119;SDS011;73001;51.784;4.660;2023-11-21T09:23:06;5.31;;;5.28;;
83119;SDS011;73001;51.784;4.660;2023-11-21T09:25:32;5.36;;;5.33;;
83119;SDS011;73001;51.784;4.660;2023-11-21T09:27:57;5.03;;;5.03;;
83119;SDS011;73001;51.784;4.660;2023-11-21T09:30:23;5.06;;;5.03;;
83119;SDS011;73001;51.784;4.660;2023-11-21T09:32:50;5.32;;;5.27;;
83119;SDS011;73001;51.784;4.660;2023-11-21T09:35:15;5.07;;;5.03;;
83119;SDS011;73001;51.784;4.660;2023-11-21T09:37:45;5.66;;;5.58;;
83119;SDS011;73001;51.784;4.660;2023-11-21T09:40:11;5.78;;;5.75;;
83119;SDS011;73001;51.784;4.660;2023-11-21T09:42:38;6.07;;;6.01;;
83119;SDS011;73001;51.784;4.660;2023-11-21T09:47:51;6.18;;;6.08;;
83119;SDS011;73001;51.784;4.660;2023-11-21T09:50:18;6.10;;;6.05;;
83119;SDS011;73001;51.784;4.660;2023-11-21T09:55:15;5.80;;;5.70;;
83119;SDS011;73001;51.784;4.660;2023-11-21T09:57:46;5.53;;;5.44;;
83119;SDS011;73001;51.784;4.660;2023-11-21T10:00:13;5.70;;;5.59;;
83119;SDS011;73001;51.784;4.660;2023-11-21T10:02:42;5.65;;;5.58;;
83119;SDS011;73001;51.784;4.660;2023-11-21T10:05:08;5.99;;;5.91;;
83119;SDS011;73001;51.784;4.660;2023-11-21T10:07:36;5.89;;;5.81;;
83119;SDS011;73001;51.784;4.660;2023-11-21T10:10:05;5.93;;;5.88;;
83119;SDS011;73001;51.784;4.660;2023-11-21T10:12:34;5.87;;;5.79;;
83119;SDS011;73001;51.784;4.660;2023-11-21T10:15:00;6.10;;;5.94;;
83119;SDS011;73001;51.784;4.660;2023-11-21T10:17:28;5.98;;;5.90;;
83119;SDS011;73001;51.784;4.660;2023-11-21T10:20:04;5.89;;;5.78;;
83119;SDS011;73001;51.784;4.660;2023-11-21T10:22:37;5.31;;;5.20;;
83119;SDS011;73001;51.784;4.660;2023-11-21T10:25:06;5.30;;;5.20;;
83119;SDS011;73001;51.784;4.660;2023-11-21T10:27:33;5.27;;;5.21;;
83119;SDS011;73001;51.784;4.660;2023-11-21T10:30:02;5.19;;;5.12;;
83119;SDS011;73001;51.784;4.660;2023-11-21T10:32:31;4.47;;;4.40;;
83119;SDS011;73001;51.784;4.660;2023-11-21T10:34:58;4.63;;;4.55;;
83119;SDS011;73001;51.784;4.660;2023-11-21T10:37:32;4.17;;;4.08;;
83119;SDS011;73001;51.784;4.660;2023-11-21T10:40:00;4.17;;;4.08;;
83119;SDS011;73001;51.784;4.660;2023-11-21T10:42:27;4.30;;;4.19;;
83119;SDS011;73001;51.784;4.660;2023-11-21T10:44:53;4.31;;;4.22;;
83119;SDS011;73001;51.784;4.660;2023-11-21T10:47:20;4.03;;;3.95;;
83119;SDS011;73001;51.784;4.660;2023-11-21T10:49:51;4.17;;;4.10;;
83119;SDS011;73001;51.784;4.660;2023-11-21T10:52:21;4.27;;;4.18;;
83119;SDS011;73001;51.784;4.660;2023-11-21T10:54:47;4.48;;;4.38;;
83119;SDS011;73001;51.784;4.660;2023-11-21T10:57:13;3.98;;;3.91;;
83119;SDS011;73001;51.784;4.660;2023-11-21T10:59:44;4.01;;;3.92;;
83119;SDS011;73001;51.784;4.660;2023-11-21T11:02:21;3.71;;;3.59;;
83119;SDS011;73001;51.784;4.660;2023-11-21T11:04:52;3.48;;;3.38;;
83119;SDS011;73001;51.784;4.660;2023-11-21T11:07:21;3.37;;;3.29;;
83119;SDS011;73001;51.784;4.660;2023-11-21T11:09:52;2.97;;;2.89;;
83119;SDS011;73001;51.784;4.660;2023-11-21T11:12:19;2.82;;;2.76;;
83119;SDS011;73001;51.784;4.660;2023-11-21T11:14:45;2.93;;;2.88;;
83119;SDS011;73001;51.784;4.660;2023-11-21T11:17:10;2.91;;;2.86;;
83119;SDS011;73001;51.784;4.660;2023-11-21T11:19:36;2.91;;;2.86;;
83119;SDS011;73001;51.784;4.660;2023-11-21T11:24:50;4.03;;;3.96;;
83119;SDS011;73001;51.784;4.660;2023-11-21T11:27:54;4.55;;;4.45;;
83119;SDS011;73001;51.784;4.660;2023-11-21T11:30:46;5.05;;;4.88;;
83119;SDS011;73001;51.784;4.660;2023-11-21T11:38:53;5.06;;;4.91;;
83119;SDS011;73001;51.784;4.660;2023-11-21T11:41:31;5.15;;;5.01;;
83119;SDS011;73001;51.784;4.660;2023-11-21T11:44:02;5.40;;;5.24;;
83119;SDS011;73001;51.784;4.660;2023-11-21T11:46:41;4.77;;;4.61;;
83119;SDS011;73001;51.784;4.660;2023-11-21T11:49:10;5.08;;;4.94;;
83119;SDS011;73001;51.784;4.660;2023-11-21T11:51:36;4.72;;;4.54;;
83119;SDS011;73001;51.784;4.660;2023-11-21T11:54:02;4.72;;;4.54;;
83119;SDS011;73001;51.784;4.660;2023-11-21T11:56:28;5.28;;;5.10;;
83119;SDS011;73001;51.784;4.660;2023-11-21T11:58:58;5.73;;;5.52;;
83119;SDS011;73001;51.784;4.660;2023-11-21T12:01:28;5.93;;;5.74;;
83119;SDS011;73001;51.784;4.660;2023-11-21T12:06:59;6.76;;;6.50;;
83119;SDS011;73001;51.784;4.660;2023-11-21T12:09:28;7.17;;;6.79;;
83119;SDS011;73001;51.784;4.660;2023-11-21T12:11:56;7.42;;;7.08;;
83119;SDS011;73001;51.784;4.660;2023-11-21T12:14:22;7.90;;;7.55;;
83119;SDS011;73001;51.784;4.660;2023-11-21T12:16:48;7.91;;;7.62;;
83119;SDS011;73001;51.784;4.660;2023-11-21T12:19:14;8.17;;;7.89;;
83119;SDS011;73001;51.784;4.660;2023-11-21T12:21:42;8.67;;;8.26;;
83119;SDS011;73001;51.784;4.660;2023-11-21T12:24:09;8.68;;;8.17;;
83119;SDS011;73001;51.784;4.660;2023-11-21T12:26:36;8.95;;;8.41;;
83119;SDS011;73001;51.784;4.660;2023-11-21T12:29:02;9.01;;;8.48;;
83119;SDS011;73001;51.784;4.660;2023-11-21T12:31:29;8.99;;;8.67;;
83119;SDS011;73001;51.784;4.660;2023-11-21T12:33:56;7.85;;;7.54;;
83119;SDS011;73001;51.784;4.660;2023-11-21T12:36:22;8.47;;;8.13;;
83119;SDS011;73001;51.784;4.660;2023-11-21T12:38:49;8.72;;;8.17;;
83119;SDS011;73001;51.784;4.660;2023-11-21T12:41:15;9.15;;;8.62;;
83119;SDS011;73001;51.784;4.660;2023-11-21T12:43:42;8.78;;;8.38;;
83119;SDS011;73001;51.784;4.660;2023-11-21T12:46:09;8.55;;;8.28;;
83119;SDS011;73001;51.784;4.660;2023-11-21T12:48:39;8.93;;;8.51;;
83119;SDS011;73001;51.784;4.660;2023-11-21T12:51:09;9.15;;;8.65;;
83119;SDS011;73001;51.784;4.660;2023-11-21T12:53:43;9.73;;;9.23;;
83119;SDS011;73001;51.784;4.660;2023-11-21T12:56:12;9.45;;;8.95;;
83119;SDS011;73001;51.784;4.660;2023-11-21T12:58:39;9.61;;;9.17;;
83119;SDS011;73001;51.784;4.660;2023-11-21T13:01:09;9.93;;;9.32;;
83119;SDS011;73001;51.784;4.660;2023-11-21T13:03:39;10.07;;;9.39;;
83119;SDS011;73001;51.784;4.660;2023-11-21T13:06:05;10.06;;;9.28;;
83119;SDS011;73001;51.784;4.660;2023-11-21T13:08:32;10.09;;;9.46;;
83119;SDS011;73001;51.784;4.660;2023-11-21T13:10:58;9.81;;;9.19;;
83119;SDS011;73001;51.784;4.660;2023-11-21T13:13:25;10.41;;;9.54;;
83119;SDS011;73001;51.784;4.660;2023-11-21T13:15:54;10.00;;;9.32;;
83119;SDS011;73001;51.784;4.660;2023-11-21T13:18:29;10.20;;;9.42;;
83119;SDS011;73001;51.784;4.660;2023-11-21T13:21:00;10.46;;;9.73;;
83119;SDS011;73001;51.784;4.660;2023-11-21T13:23:35;10.00;;;9.41;;
83119;SDS011;73001;51.784;4.660;2023-11-21T13:26:02;9.73;;;9.09;;
83119;SDS011;73001;51.784;4.660;2023-11-21T13:28:29;9.72;;;9.07;;
83119;SDS011;73001;51.784;4.660;2023-11-21T13:30:58;9.48;;;8.84;;
83119;SDS011;73001;51.784;4.660;2023-11-21T13:33:46;9.54;;;8.91;;
83119;SDS011;73001;51.784;4.660;2023-11-21T13:36:20;9.77;;;9.11;;
83119;SDS011;73001;51.784;4.660;2023-11-21T13:38:51;9.78;;;9.16;;
83119;SDS011;73001;51.784;4.660;2023-11-21T13:41:19;9.44;;;8.71;;
83119;SDS011;73001;51.784;4.660;2023-11-21T13:43:47;9.55;;;8.91;;
83119;SDS011;73001;51.784;4.660;2023-11-21T13:46:22;8.96;;;8.31;;
83119;SDS011;73001;51.784;4.660;2023-11-21T13:48:48;8.54;;;8.04;;
83119;SDS011;73001;51.784;4.660;2023-11-21T13:51:21;9.33;;;8.60;;
83119;SDS011;73001;51.784;4.660;2023-11-21T13:53:55;8.09;;;7.66;;
83119;SDS011;73001;51.784;4.660;2023-11-21T13:56:21;8.48;;;7.95;;
83119;SDS011;73001;51.784;4.660;2023-11-21T13:58:50;8.74;;;8.13;;
83119;SDS011;73001;51.784;4.660;2023-11-21T14:01:17;8.43;;;8.00;;
83119;SDS011;73001;51.784;4.660;2023-11-21T14:03:56;8.43;;;8.04;;
83119;SDS011;73001;51.784;4.660;2023-11-21T14:06:27;9.44;;;8.79;;
83119;SDS011;73001;51.784;4.660;2023-11-21T14:09:02;9.02;;;8.44;;
83119;SDS011;73001;51.784;4.660;2023-11-21T14:11:30;9.36;;;8.59;;
83119;SDS011;73001;51.784;4.660;2023-11-21T14:13:56;9.37;;;8.76;;
83119;SDS011;73001;51.784;4.660;2023-11-21T14:16:24;9.46;;;8.87;;
83119;SDS011;73001;51.784;4.660;2023-11-21T14:18:50;9.50;;;8.94;;
83119;SDS011;73001;51.784;4.660;2023-11-21T14:21:23;9.78;;;9.23;;
83119;SDS011;73001;51.784;4.660;2023-11-21T14:23:49;9.87;;;9.18;;
83119;SDS011;73001;51.784;4.660;2023-11-21T14:26:15;9.61;;;9.00;;
83119;SDS011;73001;51.784;4.660;2023-11-21T14:28:42;9.33;;;8.88;;
83119;SDS011;73001;51.784;4.660;2023-11-21T14:31:08;8.97;;;8.51;;
83119;SDS011;73001;51.784;4.660;2023-11-21T14:33:40;9.02;;;8.55;;
83119;SDS011;73001;51.784;4.660;2023-11-21T14:36:06;10.20;;;9.52;;
83119;SDS011;73001;51.784;4.660;2023-11-21T14:38:35;9.85;;;9.30;;
83119;SDS011;73001;51.784;4.660;2023-11-21T14:41:04;11.50;;;10.45;;
83119;SDS011;73001;51.784;4.660;2023-11-21T14:43:32;11.59;;;10.77;;
83119;SDS011;73001;51.784;4.660;2023-11-21T14:46:00;12.83;;;11.81;;
83119;SDS011;73001;51.784;4.660;2023-11-21T14:48:27;12.98;;;11.88;;
83119;SDS011;73001;51.784;4.660;2023-11-21T14:51:07;12.98;;;12.14;;
83119;SDS011;73001;51.784;4.660;2023-11-21T14:53:52;14.38;;;13.14;;
83119;SDS011;73001;51.784;4.660;2023-11-21T14:56:24;14.78;;;13.60;;
83119;SDS011;73001;51.784;4.660;2023-11-21T14:58:56;15.81;;;14.59;;
83119;SDS011;73001;51.784;4.660;2023-11-21T15:01:23;15.91;;;14.81;;